createdAt,value
2023-02-14T00:01:44.026Z,8.73
2023-02-14T00:03:45.609Z,9.10
2023-02-14T00:05:47.396Z,10.55
2023-02-14T00:07:49.014Z,11.40
2023-02-14T00:09:50.609Z,12.50
2023-02-14T00:11:52.980Z,10.85
2023-02-14T00:14:13.393Z,11.10
2023-02-14T00:16:15.038Z,10.80
2023-02-14T00:18:18.425Z,11.00
2023-02-14T00:20:24.419Z,10.82
2023-02-14T00:22:26.150Z,9.75
2023-02-14T00:24:27.893Z,8.90
2023-02-14T00:26:29.535Z,9.13
2023-02-14T00:28:31.121Z,7.07
2023-02-14T00:30:32.969Z,8.98
2023-02-14T00:32:36.978Z,8.25
2023-02-14T00:34:40.598Z,7.57
2023-02-14T00:36:42.871Z,9.15
2023-02-14T00:38:44.462Z,8.68
2023-02-14T00:40:46.028Z,10.35
2023-02-14T00:42:47.610Z,9.43
2023-02-14T00:44:49.147Z,10.50
2023-02-14T00:46:50.882Z,9.40
2023-02-14T00:48:52.930Z,10.57
2023-02-14T00:50:54.516Z,8.95
2023-02-14T00:52:56.105Z,9.38
2023-02-14T00:54:57.725Z,8.50
2023-02-14T00:56:59.596Z,8.68
2023-02-14T00:59:01.188Z,8.38
2023-02-14T01:01:05.744Z,9.02
2023-02-14T01:03:07.573Z,7.70
2023-02-14T01:05:09.210Z,8.93
2023-02-14T01:07:10.951Z,8.10
2023-02-14T01:09:12.574Z,9.35
2023-02-14T01:11:17.590Z,8.90
2023-02-14T01:13:20.896Z,9.02
2023-02-14T01:15:25.329Z,10.18
2023-02-14T01:17:27.502Z,9.15
2023-02-14T01:19:29.181Z,8.93
2023-02-14T01:21:32.949Z,7.43
2023-02-14T01:23:34.536Z,7.93
2023-02-14T01:25:39.394Z,8.20
2023-02-14T01:27:41.236Z,8.13
2023-02-14T01:29:42.827Z,10.32
2023-02-14T01:31:45.235Z,9.23
2023-02-14T01:33:47.807Z,12.35
2023-02-14T01:35:49.495Z,13.05
2023-02-14T01:37:51.116Z,18.27
2023-02-14T01:39:52.767Z,18.92
2023-02-14T01:41:56.090Z,16.63
2023-02-14T01:44:22.531Z,17.75
2023-02-14T01:46:26.240Z,15.60
2023-02-14T01:48:27.870Z,14.52
2023-02-14T01:50:37.052Z,12.48
2023-02-14T01:52:44.340Z,11.35
2023-02-14T01:54:51.506Z,10.70
2023-02-14T01:56:57.036Z,12.57
2023-02-14T01:59:01.525Z,11.65
2023-02-14T02:01:04.261Z,11.43
2023-02-14T02:03:07.210Z,10.23
2023-02-14T02:05:08.877Z,8.80
2023-02-14T02:07:14.657Z,8.20
2023-02-14T02:09:25.724Z,9.00
2023-02-14T02:11:27.607Z,9.40
2023-02-14T02:13:30.124Z,7.70
2023-02-14T02:15:41.872Z,8.55
2023-02-14T02:18:00.330Z,7.95
2023-02-14T02:20:30.087Z,8.13
2023-02-14T02:22:34.589Z,9.05
2023-02-14T02:24:59.234Z,8.73
2023-02-14T02:27:00.818Z,9.32
2023-02-14T02:29:20.542Z,9.75
2023-02-14T02:31:28.138Z,8.68
2023-02-14T02:33:38.831Z,9.13
2023-02-14T02:35:43.336Z,9.75
2023-02-14T02:37:50.719Z,8.27
2023-02-14T02:40:07.526Z,8.88
2023-02-14T02:42:38.660Z,8.55
2023-02-14T02:45:14.718Z,9.88
2023-02-14T02:47:37.884Z,9.38
2023-02-14T02:50:12.812Z,8.35
2023-02-14T02:52:40.973Z,9.15
2023-02-14T02:54:46.865Z,9.52
2023-02-14T02:56:56.067Z,8.77
2023-02-14T02:59:00.006Z,9.57
2023-02-14T03:01:05.313Z,8.30
2023-02-14T03:03:25.996Z,7.88
2023-02-14T03:05:28.836Z,8.73
2023-02-14T03:07:41.372Z,8.75
2023-02-14T03:09:42.931Z,8.52
2023-02-14T03:11:51.895Z,9.63
2023-02-14T03:14:35.420Z,9.05
2023-02-14T03:17:06.194Z,8.13
2023-02-14T03:19:17.970Z,10.13
2023-02-14T03:21:43.152Z,8.10
2023-02-14T03:24:04.246Z,8.40
2023-02-14T03:26:15.463Z,9.10
2023-02-14T03:28:22.419Z,8.75
2023-02-14T03:30:41.972Z,8.77
2023-02-14T03:32:49.500Z,7.90
2023-02-14T03:34:55.346Z,8.18
2023-02-14T03:37:09.761Z,9.02
2023-02-14T03:39:25.875Z,8.55
2023-02-14T03:41:31.772Z,10.55
2023-02-14T03:43:36.998Z,9.02
2023-02-14T03:45:43.348Z,8.48
2023-02-14T03:47:45.920Z,8.85
2023-02-14T03:49:52.062Z,8.75
2023-02-14T03:51:56.105Z,8.48
2023-02-14T03:53:58.702Z,8.73
2023-02-14T03:56:10.738Z,8.50
2023-02-14T03:58:41.298Z,8.88
2023-02-14T04:00:44.340Z,9.70
2023-02-14T04:02:49.554Z,9.43
2023-02-14T04:04:52.824Z,9.57
2023-02-14T04:06:54.549Z,10.07
2023-02-14T04:08:56.117Z,9.77
2023-02-14T04:11:00.659Z,9.77
2023-02-14T04:13:02.537Z,8.80
2023-02-14T04:15:05.590Z,10.17
2023-02-14T04:17:26.260Z,10.10
2023-02-14T04:19:28.239Z,9.07
2023-02-14T04:21:29.952Z,9.00
2023-02-14T04:23:31.693Z,9.63
2023-02-14T04:25:33.262Z,10.53
2023-02-14T04:27:34.943Z,10.37
2023-02-14T04:29:48.426Z,10.67
2023-02-14T04:31:50.304Z,10.50
2023-02-14T04:33:51.979Z,9.73
2023-02-14T04:35:53.572Z,10.33
2023-02-14T04:37:55.253Z,9.57
2023-02-14T04:39:56.948Z,8.93
2023-02-14T04:41:58.630Z,10.10
2023-02-14T04:44:00.215Z,11.57
2023-02-14T04:46:01.958Z,8.40
2023-02-14T04:48:03.640Z,8.53
2023-02-14T04:50:05.894Z,9.80
2023-02-14T04:52:07.711Z,9.47
2023-02-14T04:54:09.506Z,10.50
2023-02-14T04:56:11.290Z,10.97
2023-02-14T04:58:12.927Z,9.57
2023-02-14T05:00:15.311Z,10.63
2023-02-14T05:02:17.031Z,10.13
2023-02-14T05:04:18.710Z,9.50
2023-02-14T05:06:20.418Z,9.60
2023-02-14T05:08:22.050Z,10.77
2023-02-14T05:10:23.739Z,8.93
2023-02-14T05:12:25.409Z,10.17
2023-02-14T05:14:27.061Z,9.70
2023-02-14T05:16:28.887Z,9.77
2023-02-14T05:18:30.503Z,9.33
2023-02-14T05:20:32.342Z,9.87
2023-02-14T05:22:34.099Z,9.90
2023-02-14T05:24:35.675Z,11.93
2023-02-14T05:26:37.421Z,9.93
2023-02-14T05:28:41.150Z,9.67
2023-02-14T05:30:43.028Z,9.97
2023-02-14T05:32:44.942Z,9.43
2023-02-14T05:34:46.624Z,10.33
2023-02-14T05:36:48.287Z,11.07
2023-02-14T05:38:50.820Z,12.07
2023-02-14T05:40:55.295Z,10.43
2023-02-14T05:42:56.953Z,10.53
2023-02-14T05:44:58.588Z,10.63
2023-02-14T05:47:00.340Z,10.87
2023-02-14T05:49:03.363Z,11.20
2023-02-14T05:51:09.476Z,12.10
2023-02-14T05:53:12.153Z,10.47
2023-02-14T05:55:13.916Z,11.77
2023-02-14T05:57:15.737Z,10.90
2023-02-14T05:59:17.427Z,12.17
2023-02-14T06:01:19.058Z,12.73
2023-02-14T06:03:20.657Z,11.07
2023-02-14T06:05:22.357Z,10.47
2023-02-14T06:07:24.113Z,9.87
2023-02-14T06:09:26.716Z,11.23
2023-02-14T06:11:28.334Z,9.17
2023-02-14T06:13:30.084Z,9.97
2023-02-14T06:15:31.768Z,9.33
2023-02-14T06:17:33.609Z,9.70
2023-02-14T06:19:35.653Z,10.77
2023-02-14T06:21:38.916Z,10.43
2023-02-14T06:23:40.511Z,10.43
2023-02-14T06:25:42.219Z,11.37
2023-02-14T06:27:44.255Z,11.13
2023-02-14T06:29:46.035Z,11.43
2023-02-14T06:31:47.990Z,11.93
2023-02-14T06:33:49.844Z,12.13
2023-02-14T06:35:56.762Z,11.50
2023-02-14T06:37:58.505Z,12.50
2023-02-14T06:40:00.225Z,12.40
2023-02-14T06:42:02.007Z,12.67
2023-02-14T06:44:04.899Z,12.07
2023-02-14T06:46:07.083Z,12.20
2023-02-14T06:48:09.192Z,11.93
2023-02-14T06:50:11.895Z,11.77
2023-02-14T06:52:13.700Z,12.30
2023-02-14T06:54:24.002Z,11.77
2023-02-14T06:56:26.830Z,11.13
2023-02-14T06:58:28.575Z,9.57
2023-02-14T07:00:33.702Z,11.00
2023-02-14T07:02:35.486Z,12.40
2023-02-14T07:04:37.434Z,12.43
2023-02-14T07:06:41.612Z,11.37
2023-02-14T07:08:44.828Z,9.63
2023-02-14T07:10:49.070Z,10.83
2023-02-14T07:12:51.137Z,12.13
2023-02-14T07:14:53.073Z,10.97
2023-02-14T07:16:54.861Z,10.40
2023-02-14T07:18:57.992Z,10.30
2023-02-14T07:20:59.873Z,9.53
2023-02-14T07:23:02.100Z,10.27
2023-02-14T07:25:04.706Z,10.90
2023-02-14T07:27:06.706Z,11.20
2023-02-14T07:29:09.183Z,9.57
2023-02-14T07:31:12.208Z,9.93
2023-02-14T07:33:14.071Z,9.73
2023-02-14T07:35:17.167Z,9.90
2023-02-14T07:37:20.541Z,10.87
2023-02-14T07:39:22.321Z,10.10
2023-02-14T07:41:24.822Z,11.83
2023-02-14T07:43:26.941Z,10.00
2023-02-14T07:45:31.789Z,9.60
2023-02-14T07:47:33.614Z,11.43
2023-02-14T07:49:36.487Z,11.43
2023-02-14T07:51:39.013Z,12.77
2023-02-14T07:53:41.617Z,11.80
2023-02-14T07:55:43.803Z,11.60
2023-02-14T07:57:48.030Z,10.63
2023-02-14T07:59:49.686Z,12.00
2023-02-14T08:01:51.412Z,11.60
2023-02-14T08:03:53.178Z,12.27
2023-02-14T08:05:57.616Z,12.27
2023-02-14T08:07:59.229Z,11.60
2023-02-14T08:10:00.791Z,12.73
2023-02-14T08:12:21.385Z,12.13
2023-02-14T08:14:23.382Z,13.25
2023-02-14T08:16:25.093Z,11.48
2023-02-14T08:18:27.737Z,13.60
2023-02-14T08:20:29.677Z,12.93
2023-02-14T08:22:32.106Z,12.77
2023-02-14T08:24:33.845Z,12.98
2023-02-14T08:26:35.689Z,11.25
2023-02-14T08:28:38.784Z,11.95
2023-02-14T08:30:41.671Z,12.48
2023-02-14T08:32:43.375Z,11.82
2023-02-14T08:34:45.218Z,11.20
2023-02-14T08:36:47.630Z,12.88
2023-02-14T08:38:49.527Z,11.73
2023-02-14T08:40:51.444Z,11.63
2023-02-14T08:42:56.287Z,12.13
2023-02-14T08:44:58.169Z,11.68
2023-02-14T08:47:02.133Z,11.70
2023-02-14T08:49:04.123Z,13.48
2023-02-14T08:51:10.436Z,11.10
2023-02-14T08:53:13.648Z,12.00
2023-02-14T08:55:15.490Z,11.02
2023-02-14T08:57:17.965Z,11.18
2023-02-14T08:59:19.717Z,11.18
2023-02-14T09:01:24.445Z,12.85
2023-02-14T09:03:49.142Z,12.25
2023-02-14T09:05:54.609Z,13.07
2023-02-14T09:07:57.565Z,11.38
2023-02-14T09:09:59.780Z,13.23
2023-02-14T09:12:08.470Z,12.20
2023-02-14T09:14:10.382Z,13.27
2023-02-14T09:16:19.599Z,12.50
2023-02-14T09:18:22.509Z,12.05
2023-02-14T09:20:27.221Z,13.52
2023-02-14T09:22:28.968Z,13.20
2023-02-14T09:24:35.009Z,13.35
2023-02-14T09:26:40.678Z,13.65
2023-02-14T09:28:46.279Z,14.00
2023-02-14T09:30:48.067Z,13.23
2023-02-14T09:32:52.596Z,12.25
2023-02-14T09:34:54.536Z,13.95
2023-02-14T09:36:59.487Z,14.45
2023-02-14T09:39:01.392Z,14.48
2023-02-14T09:41:08.676Z,14.18
2023-02-14T09:43:26.253Z,13.05
2023-02-14T09:45:30.082Z,15.85
2023-02-14T09:47:50.286Z,15.88
2023-02-14T09:49:53.196Z,13.32
2023-02-14T09:51:55.408Z,14.40
2023-02-14T09:54:15.069Z,12.70
2023-02-14T09:56:50.317Z,14.90
2023-02-14T09:59:01.369Z,14.63
2023-02-14T10:01:13.392Z,12.80
2023-02-14T10:03:33.278Z,13.77
2023-02-14T10:05:44.544Z,12.63
2023-02-14T10:08:09.706Z,13.25
2023-02-14T10:10:19.593Z,12.73
2023-02-14T10:12:24.984Z,12.57
2023-02-14T10:14:30.292Z,14.05
2023-02-14T10:16:35.671Z,13.15
2023-02-14T10:18:43.237Z,13.02
2023-02-14T10:20:46.628Z,13.55
2023-02-14T10:23:11.901Z,14.50
2023-02-14T10:25:20.678Z,12.82
2023-02-14T10:27:40.256Z,13.90
2023-02-14T10:29:42.091Z,13.30
2023-02-14T10:31:59.030Z,14.57
2023-02-14T10:34:17.924Z,13.13
2023-02-14T10:36:46.738Z,13.27
2023-02-14T10:39:03.445Z,12.32
2023-02-14T10:41:25.349Z,13.85
2023-02-14T10:43:48.628Z,12.57
2023-02-14T10:46:18.109Z,15.15
2023-02-14T10:48:45.244Z,13.13
2023-02-14T10:51:14.929Z,12.18
2023-02-14T10:53:49.166Z,12.98
2023-02-14T10:55:55.360Z,12.27
2023-02-14T10:58:05.168Z,12.60
2023-02-14T11:00:35.582Z,12.13
2023-02-14T11:02:42.800Z,12.95
2023-02-14T11:07:03.145Z,12.93
2023-02-14T11:09:05.290Z,13.00
2023-02-14T11:11:34.254Z,13.60
2023-02-14T11:13:38.634Z,11.82
2023-02-14T11:15:51.335Z,12.63
2023-02-14T11:18:17.830Z,11.93
2023-02-14T11:20:20.329Z,12.90
2023-02-14T11:22:33.926Z,13.85
2023-02-14T11:24:38.527Z,13.10
2023-02-14T11:26:46.334Z,12.52
2023-02-14T11:28:56.014Z,13.10
2023-02-14T11:30:58.001Z,13.13
2023-02-14T11:33:00.432Z,13.32
2023-02-14T11:35:07.246Z,13.02
2023-02-14T11:37:23.789Z,13.70
2023-02-14T11:39:34.931Z,12.43
2023-02-14T11:41:59.101Z,13.77
2023-02-14T11:44:18.990Z,13.55
2023-02-14T11:46:20.669Z,13.32
2023-02-14T11:48:37.310Z,13.32
2023-02-14T11:50:42.127Z,14.25
2023-02-14T11:52:51.476Z,13.10
2023-02-14T11:54:53.965Z,13.43
2023-02-14T11:57:01.202Z,14.55
2023-02-14T11:59:04.699Z,14.23
2023-02-14T12:01:06.902Z,13.75
2023-02-14T12:03:18.454Z,14.18
2023-02-14T12:05:25.686Z,14.93
2023-02-14T12:07:37.386Z,14.25
2023-02-14T12:09:41.448Z,14.27
2023-02-14T12:12:04.729Z,15.40
2023-02-14T12:14:21.704Z,15.15
2023-02-14T12:16:52.991Z,14.90
2023-02-14T12:19:15.571Z,15.02
2023-02-14T12:21:41.385Z,15.95
2023-02-14T12:24:04.816Z,15.90
2023-02-14T12:26:26.199Z,15.52
2023-02-14T12:28:53.405Z,16.00
2023-02-14T12:30:55.243Z,16.10
2023-02-14T12:32:57.733Z,15.57
2023-02-14T12:35:19.753Z,14.85
2023-02-14T12:37:48.739Z,16.23
2023-02-14T12:40:11.133Z,15.85
2023-02-14T12:42:12.852Z,14.77
2023-02-14T12:44:33.289Z,15.63
2023-02-14T12:46:50.001Z,15.23
2023-02-14T12:49:04.879Z,14.93
2023-02-14T12:51:27.174Z,15.55
2023-02-14T12:53:34.922Z,15.38
2023-02-14T12:55:40.722Z,15.18
2023-02-14T12:58:00.044Z,14.75
2023-02-14T13:00:15.093Z,14.90
2023-02-14T13:02:22.984Z,15.82
2023-02-14T13:04:53.361Z,15.27
2023-02-14T13:07:01.628Z,16.77
2023-02-14T13:09:23.566Z,17.02
2023-02-14T13:11:58.872Z,16.80
2023-02-14T13:14:25.400Z,14.90
2023-02-14T13:16:33.726Z,14.30
2023-02-14T13:18:53.583Z,15.70
2023-02-14T13:21:04.931Z,15.30
2023-02-14T13:23:14.181Z,15.35
2023-02-14T13:25:34.005Z,16.20
2023-02-14T13:27:38.038Z,14.68
2023-02-14T13:29:47.306Z,14.23
2023-02-14T13:31:49.220Z,15.07
2023-02-14T13:33:54.937Z,15.10
2023-02-14T13:36:06.637Z,15.63
2023-02-14T13:38:13.235Z,15.73
2023-02-14T13:40:21.148Z,16.27
2023-02-14T13:42:50.254Z,15.38
2023-02-14T13:44:52.823Z,14.55
2023-02-14T13:46:54.631Z,15.50
2023-02-14T13:49:01.133Z,15.95
2023-02-14T13:51:05.248Z,15.75
2023-02-14T13:53:12.817Z,14.70
2023-02-14T13:55:20.820Z,15.10
2023-02-14T13:57:34.384Z,14.75
2023-02-14T13:59:36.290Z,12.77
2023-02-14T14:01:50.186Z,13.73
2023-02-14T14:03:57.827Z,15.13
2023-02-14T14:06:02.674Z,14.52
2023-02-14T14:08:30.661Z,14.38
2023-02-14T14:10:49.120Z,13.60
2023-02-14T14:12:52.188Z,15.02
2023-02-14T14:15:06.231Z,14.65
2023-02-14T14:17:20.414Z,13.98
2023-02-14T14:19:22.024Z,15.45
2023-02-14T14:21:26.559Z,14.65
2023-02-14T14:23:31.295Z,14.00
2023-02-14T14:25:41.265Z,15.25
2023-02-14T14:27:45.305Z,14.77
2023-02-14T14:29:50.221Z,14.43
2023-02-14T14:31:55.884Z,15.80
2023-02-14T14:33:59.934Z,16.73
2023-02-14T14:36:08.954Z,15.32
2023-02-14T14:38:13.769Z,15.98
2023-02-14T14:40:20.290Z,15.57
2023-02-14T14:42:23.654Z,15.10
2023-02-14T14:44:25.810Z,15.68
2023-02-14T14:46:27.970Z,15.73
2023-02-14T14:48:35.470Z,16.75
2023-02-14T14:50:37.180Z,16.35
2023-02-14T14:52:43.882Z,16.73
2023-02-14T14:54:45.602Z,17.75
2023-02-14T14:56:52.491Z,18.05
2023-02-14T14:58:54.540Z,17.13
2023-02-14T15:00:56.255Z,18.25
2023-02-14T15:03:06.809Z,17.48
2023-02-14T15:05:32.692Z,18.98
2023-02-14T15:07:35.334Z,19.35
2023-02-14T15:09:37.076Z,18.33
2023-02-14T15:11:57.967Z,19.15
2023-02-14T15:13:59.839Z,18.83
2023-02-14T15:16:03.804Z,18.27
2023-02-14T15:18:07.953Z,19.52
2023-02-14T15:20:15.314Z,17.42
2023-02-14T15:22:29.873Z,19.63
2023-02-14T15:24:35.114Z,18.63
2023-02-14T15:26:36.825Z,18.55
2023-02-14T15:28:38.625Z,20.30
2023-02-14T15:30:44.147Z,21.13
2023-02-14T15:32:47.407Z,20.77
2023-02-14T15:34:49.182Z,20.63
2023-02-14T15:36:56.663Z,20.33
2023-02-14T15:38:58.841Z,21.23
2023-02-14T15:41:01.099Z,22.00
2023-02-14T15:43:18.382Z,21.63
2023-02-14T15:45:30.889Z,22.35
2023-02-14T15:47:32.587Z,21.10
2023-02-14T15:49:36.976Z,21.67
2023-02-14T15:51:39.241Z,19.60
2023-02-14T15:53:42.925Z,19.10
2023-02-14T15:55:44.875Z,20.58
2023-02-14T15:57:54.699Z,21.13
2023-02-14T15:59:56.323Z,22.13
2023-02-14T16:02:04.471Z,22.13
2023-02-14T16:04:07.056Z,23.15
2023-02-14T16:06:16.972Z,22.52
2023-02-14T16:08:30.704Z,23.15
2023-02-14T16:10:38.644Z,24.35
2023-02-14T16:12:42.039Z,23.48
2023-02-14T16:14:45.804Z,23.33
2023-02-14T16:17:13.080Z,25.50
2023-02-14T16:19:35.390Z,22.70
2023-02-14T16:21:37.064Z,24.77
2023-02-14T16:23:39.089Z,24.55
2023-02-14T16:25:41.443Z,24.40
2023-02-14T16:27:43.176Z,24.05
2023-02-14T16:29:44.866Z,24.60
2023-02-14T16:34:16.224Z,22.75
2023-02-14T16:36:23.282Z,23.02
2023-02-14T16:38:24.986Z,25.77
2023-02-14T16:40:27.967Z,23.13
2023-02-14T16:42:29.721Z,24.40
2023-02-14T16:44:31.941Z,25.20
2023-02-14T16:46:35.902Z,24.13
2023-02-14T16:48:37.610Z,22.90
2023-02-14T16:50:40.257Z,25.48
2023-02-14T16:52:42.512Z,22.38
2023-02-14T16:54:44.191Z,23.25
2023-02-14T16:56:50.363Z,23.00
2023-02-14T16:58:52.045Z,25.23
2023-02-14T17:00:53.966Z,24.13
2023-02-14T17:03:04.606Z,24.83
2023-02-14T17:05:06.802Z,25.52
2023-02-14T17:07:08.530Z,24.15
2023-02-14T17:09:11.667Z,23.63
2023-02-14T17:11:13.595Z,25.38
2023-02-14T17:13:18.881Z,24.95
2023-02-14T17:15:21.576Z,24.90
2023-02-14T17:17:23.319Z,21.90
2023-02-14T17:19:25.415Z,25.02
2023-02-14T17:21:27.126Z,24.88
2023-02-14T17:23:28.828Z,25.75
2023-02-14T17:25:30.802Z,26.15
2023-02-14T17:27:32.557Z,25.48
2023-02-14T17:29:34.301Z,24.90
2023-02-14T17:31:36.196Z,27.65
2023-02-14T17:33:39.002Z,24.77
2023-02-14T17:35:40.640Z,26.77
2023-02-14T17:37:42.737Z,24.90
2023-02-14T17:39:45.206Z,27.10
2023-02-14T17:41:46.987Z,26.40
2023-02-14T17:43:49.933Z,27.33
2023-02-14T17:45:51.557Z,27.77
2023-02-14T17:47:53.790Z,26.20
2023-02-14T17:49:55.523Z,26.20
2023-02-14T17:51:57.307Z,25.20
2023-02-14T17:53:59.141Z,25.45
2023-02-14T17:56:05.984Z,27.40
2023-02-14T17:58:07.609Z,26.65
2023-02-14T18:00:11.735Z,22.92
2023-02-14T18:02:14.015Z,26.15
2023-02-14T18:04:15.655Z,26.58
2023-02-14T18:06:19.380Z,26.55
2023-02-14T18:08:22.169Z,25.50
2023-02-14T18:10:23.846Z,26.52
2023-02-14T18:12:25.532Z,25.38
2023-02-14T18:14:27.185Z,28.83
2023-02-14T18:16:29.032Z,27.08
2023-02-14T18:18:31.379Z,27.17
2023-02-14T18:20:33.016Z,27.75
2023-02-14T18:22:34.724Z,25.13
2023-02-14T18:24:36.667Z,24.88
2023-02-14T18:26:40.410Z,25.25
2023-02-14T18:28:42.392Z,24.30
2023-02-14T18:30:44.133Z,24.35
2023-02-14T18:32:45.816Z,28.73
2023-02-14T18:34:47.396Z,24.33
2023-02-14T18:36:49.112Z,26.88
2023-02-14T18:38:50.848Z,25.70
2023-02-14T18:40:52.859Z,26.42
2023-02-14T18:42:55.105Z,23.10
2023-02-14T18:44:56.719Z,22.88
2023-02-14T18:47:00.659Z,26.10
2023-02-14T18:49:05.999Z,24.55
2023-02-14T18:51:13.226Z,27.38
2023-02-14T18:53:16.831Z,23.48
2023-02-14T18:55:18.556Z,26.27
2023-02-14T18:57:20.217Z,25.55
2023-02-14T18:59:21.951Z,25.27
2023-02-14T19:01:28.743Z,26.85
2023-02-14T19:03:30.407Z,25.63
2023-02-14T19:05:32.153Z,25.67
2023-02-14T19:07:35.727Z,24.20
2023-02-14T19:09:39.874Z,26.33
2023-02-14T19:11:42.232Z,27.30
2023-02-14T19:13:49.792Z,24.75
2023-02-14T19:15:52.179Z,23.40
2023-02-14T19:17:54.277Z,25.92
2023-02-14T19:19:56.078Z,23.80
2023-02-14T19:22:01.537Z,23.83
2023-02-14T19:24:07.482Z,22.83
2023-02-14T19:26:20.740Z,23.02
2023-02-14T19:28:22.358Z,24.38
2023-02-14T19:30:24.036Z,23.95
2023-02-14T19:32:26.210Z,23.88
2023-02-14T19:34:30.150Z,26.60
2023-02-14T19:36:32.153Z,24.75
2023-02-14T19:38:34.588Z,23.02
2023-02-14T19:40:36.217Z,25.13
2023-02-14T19:42:38.066Z,22.48
2023-02-14T19:44:40.383Z,26.33
2023-02-14T19:46:43.109Z,21.98
2023-02-14T19:48:45.049Z,24.23
2023-02-14T19:50:46.734Z,24.52
2023-02-14T19:52:48.404Z,24.55
2023-02-14T19:54:50.142Z,23.52
2023-02-14T19:56:52.744Z,24.45
2023-02-14T19:58:56.126Z,26.48
2023-02-14T20:00:59.757Z,24.05
2023-02-14T20:03:01.848Z,26.02
2023-02-14T20:05:04.388Z,26.60
2023-02-14T20:07:06.082Z,25.55
2023-02-14T20:09:07.911Z,26.08
2023-02-14T20:11:51.890Z,25.60
2023-02-14T20:13:55.264Z,22.38
2023-02-14T20:15:56.870Z,23.10
2023-02-14T20:17:58.505Z,24.05
2023-02-14T20:20:00.425Z,24.08
2023-02-14T20:22:02.763Z,24.80
2023-02-14T20:24:05.449Z,25.35
2023-02-14T20:26:12.391Z,24.00
2023-02-14T20:28:14.022Z,26.85
2023-02-14T20:30:20.680Z,26.92
2023-02-14T20:32:22.416Z,25.95
2023-02-14T20:34:24.305Z,27.33
2023-02-14T20:36:26.477Z,24.92
2023-02-14T20:38:28.086Z,26.20
2023-02-14T20:40:29.666Z,25.98
2023-02-14T20:42:31.324Z,28.80
2023-02-14T20:44:33.835Z,25.05
2023-02-14T20:46:36.187Z,26.88
2023-02-14T20:48:38.463Z,25.90
2023-02-14T20:50:40.294Z,25.58
2023-02-14T20:52:41.937Z,27.33
2023-02-14T20:54:43.618Z,26.38
2023-02-14T20:56:45.864Z,27.83
2023-02-14T20:58:47.512Z,28.50
2023-02-14T21:00:49.157Z,26.42
2023-02-14T21:02:50.810Z,27.73
2023-02-14T21:04:52.401Z,24.42
2023-02-14T21:06:54.669Z,23.75
2023-02-14T21:08:57.185Z,24.50
2023-02-14T21:10:59.040Z,23.25
2023-02-14T21:13:00.887Z,26.02
2023-02-14T21:15:02.543Z,25.40
2023-02-14T21:17:04.940Z,23.10
2023-02-14T21:19:06.629Z,24.88
2023-02-14T21:21:12.938Z,26.85
2023-02-14T21:23:14.593Z,24.58
2023-02-14T21:25:16.333Z,25.65
2023-02-14T21:27:18.037Z,22.38
2023-02-14T21:29:19.697Z,24.17
2023-02-14T21:31:21.974Z,24.95
2023-02-14T21:33:25.375Z,25.05
2023-02-14T21:35:27.036Z,23.77
2023-02-14T21:37:28.702Z,25.42
2023-02-14T21:39:31.103Z,23.90
2023-02-14T21:41:33.137Z,23.75
2023-02-14T21:43:36.836Z,26.13
2023-02-14T21:45:53.453Z,23.75
2023-02-14T21:48:13.798Z,23.80
2023-02-14T21:50:31.031Z,23.42
2023-02-14T21:52:32.685Z,21.63
2023-02-14T21:54:34.284Z,24.23
2023-02-14T21:56:37.117Z,23.30
2023-02-14T21:58:38.986Z,20.60
2023-02-14T22:00:40.756Z,25.45
2023-02-14T22:02:42.594Z,21.80
2023-02-14T22:04:45.629Z,21.70
2023-02-14T22:06:47.306Z,24.88
2023-02-14T22:08:57.233Z,23.00
2023-02-14T22:11:00.000Z,23.45
2023-02-14T22:13:01.996Z,24.83
2023-02-14T22:15:03.777Z,22.70
2023-02-14T22:17:05.528Z,22.55
2023-02-14T22:19:08.347Z,25.88
2023-02-14T22:21:13.991Z,24.08
2023-02-14T22:23:15.593Z,23.45
2023-02-14T22:25:17.318Z,23.40
2023-02-14T22:27:19.112Z,23.17
2023-02-14T22:29:20.814Z,27.05
2023-02-14T22:31:23.918Z,24.25
2023-02-14T22:33:25.600Z,22.60
2023-02-14T22:35:27.260Z,23.08
2023-02-14T22:37:29.034Z,24.33
2023-02-14T22:39:30.693Z,23.38
2023-02-14T22:41:37.678Z,22.92
2023-02-14T22:43:39.774Z,22.35
2023-02-14T22:45:41.389Z,23.35
2023-02-14T22:47:43.181Z,24.00
2023-02-14T22:49:45.006Z,23.63
2023-02-14T22:51:46.775Z,22.70
2023-02-14T22:53:49.874Z,23.13
2023-02-14T22:55:51.522Z,22.67
2023-02-14T22:57:53.206Z,23.50
2023-02-14T22:59:54.794Z,22.65
2023-02-14T23:01:56.504Z,22.52
2023-02-14T23:03:59.408Z,20.92
2023-02-14T23:06:01.296Z,23.65
2023-02-14T23:08:03.110Z,22.23
2023-02-14T23:10:06.047Z,22.60
2023-02-14T23:12:27.682Z,22.73
2023-02-14T23:14:47.810Z,21.23
2023-02-14T23:17:08.138Z,21.17
2023-02-14T23:19:33.449Z,21.73
2023-02-14T23:21:53.823Z,20.98
2023-02-14T23:23:55.456Z,22.33
2023-02-14T23:25:57.098Z,23.80
2023-02-14T23:27:58.904Z,21.40
2023-02-14T23:30:01.327Z,23.80
2023-02-14T23:32:03.953Z,23.30
2023-02-14T23:34:05.647Z,22.15
2023-02-14T23:36:07.450Z,21.90
2023-02-14T23:38:09.054Z,21.77
2023-02-14T23:40:11.239Z,22.80
2023-02-14T23:42:14.659Z,20.83
2023-02-14T23:44:24.184Z,20.17
2023-02-14T23:46:25.995Z,22.17
2023-02-14T23:48:28.282Z,23.38
2023-02-14T23:50:29.954Z,21.40
2023-02-14T23:52:31.611Z,21.10
2023-02-14T23:54:33.757Z,21.63
2023-02-14T23:56:35.915Z,23.83
2023-02-14T23:58:37.639Z,21.65
